sensor_id;sensor_type;location;lat;lon;timestamp;P1;durP1;ratioP1;P2;durP2;ratioP2
25870;SDS011;13689;48.590;7.752;2024-03-17T00:02:22;14.80;;;7.60;;
25870;SDS011;13689;48.590;7.752;2024-03-17T00:04:48;12.50;;;6.68;;
25870;SDS011;13689;48.590;7.752;2024-03-17T00:07:14;13.60;;;7.32;;
25870;SDS011;13689;48.590;7.752;2024-03-17T00:09:40;12.10;;;7.05;;
25870;SDS011;13689;48.590;7.752;2024-03-17T00:12:06;14.32;;;7.18;;
25870;SDS011;13689;48.590;7.752;2024-03-17T00:14:33;17.80;;;6.78;;
25870;SDS011;13689;48.590;7.752;2024-03-17T00:16:59;13.25;;;7.38;;
25870;SDS011;13689;48.590;7.752;2024-03-17T00:19:26;12.68;;;7.25;;
25870;SDS011;13689;48.590;7.752;2024-03-17T00:21:52;12.85;;;7.45;;
25870;SDS011;13689;48.590;7.752;2024-03-17T00:24:18;12.23;;;6.93;;
25870;SDS011;13689;48.590;7.752;2024-03-17T00:26:44;13.15;;;7.43;;
25870;SDS011;13689;48.590;7.752;2024-03-17T00:29:10;15.25;;;6.55;;
25870;SDS011;13689;48.590;7.752;2024-03-17T00:31:36;15.50;;;7.47;;
25870;SDS011;13689;48.590;7.752;2024-03-17T00:34:02;15.70;;;7.40;;
25870;SDS011;13689;48.590;7.752;2024-03-17T00:36:29;13.88;;;7.20;;
25870;SDS011;13689;48.590;7.752;2024-03-17T00:38:55;15.07;;;7.05;;
25870;SDS011;13689;48.590;7.752;2024-03-17T00:41:20;11.27;;;7.13;;
25870;SDS011;13689;48.590;7.752;2024-03-17T00:43:46;13.85;;;7.10;;
25870;SDS011;13689;48.590;7.752;2024-03-17T00:46:12;10.77;;;6.85;;
25870;SDS011;13689;48.590;7.752;2024-03-17T00:48:38;16.70;;;7.05;;
25870;SDS011;13689;48.590;7.752;2024-03-17T00:51:03;12.75;;;7.30;;
25870;SDS011;13689;48.590;7.752;2024-03-17T00:53:30;12.50;;;7.40;;
25870;SDS011;13689;48.590;7.752;2024-03-17T00:55:55;13.05;;;7.65;;
25870;SDS011;13689;48.590;7.752;2024-03-17T00:58:25;15.48;;;7.75;;
25870;SDS011;13689;48.590;7.752;2024-03-17T01:00:50;12.43;;;7.50;;
25870;SDS011;13689;48.590;7.752;2024-03-17T01:03:16;14.98;;;7.43;;
25870;SDS011;13689;48.590;7.752;2024-03-17T01:05:44;14.15;;;8.38;;
25870;SDS011;13689;48.590;7.752;2024-03-17T01:08:12;13.18;;;7.50;;
25870;SDS011;13689;48.590;7.752;2024-03-17T01:10:38;17.17;;;7.80;;
25870;SDS011;13689;48.590;7.752;2024-03-17T01:13:08;14.50;;;7.07;;
25870;SDS011;13689;48.590;7.752;2024-03-17T01:15:38;13.60;;;8.10;;
25870;SDS011;13689;48.590;7.752;2024-03-17T01:18:04;13.98;;;8.00;;
25870;SDS011;13689;48.590;7.752;2024-03-17T01:20:31;14.75;;;8.32;;
25870;SDS011;13689;48.590;7.752;2024-03-17T01:22:57;15.00;;;8.38;;
25870;SDS011;13689;48.590;7.752;2024-03-17T01:25:23;11.05;;;7.05;;
25870;SDS011;13689;48.590;7.752;2024-03-17T01:27:50;15.07;;;7.78;;
25870;SDS011;13689;48.590;7.752;2024-03-17T01:30:16;16.05;;;7.40;;
25870;SDS011;13689;48.590;7.752;2024-03-17T01:32:44;12.02;;;7.47;;
25870;SDS011;13689;48.590;7.752;2024-03-17T01:35:10;13.18;;;7.57;;
25870;SDS011;13689;48.590;7.752;2024-03-17T01:37:36;12.63;;;7.22;;
25870;SDS011;13689;48.590;7.752;2024-03-17T01:40:03;10.93;;;6.68;;
25870;SDS011;13689;48.590;7.752;2024-03-17T01:42:33;14.18;;;6.93;;
25870;SDS011;13689;48.590;7.752;2024-03-17T01:44:58;11.77;;;6.78;;
25870;SDS011;13689;48.590;7.752;2024-03-17T01:47:24;10.82;;;6.85;;
25870;SDS011;13689;48.590;7.752;2024-03-17T01:49:50;11.30;;;6.97;;
25870;SDS011;13689;48.590;7.752;2024-03-17T01:52:17;16.20;;;6.88;;
25870;SDS011;13689;48.590;7.752;2024-03-17T01:54:45;9.68;;;6.13;;
25870;SDS011;13689;48.590;7.752;2024-03-17T01:57:11;8.77;;;6.03;;
25870;SDS011;13689;48.590;7.752;2024-03-17T01:59:38;12.52;;;6.57;;
25870;SDS011;13689;48.590;7.752;2024-03-17T02:02:05;11.93;;;6.30;;
25870;SDS011;13689;48.590;7.752;2024-03-17T02:04:31;12.85;;;7.20;;
25870;SDS011;13689;48.590;7.752;2024-03-17T02:06:56;12.60;;;6.35;;
25870;SDS011;13689;48.590;7.752;2024-03-17T02:09:22;13.52;;;5.88;;
25870;SDS011;13689;48.590;7.752;2024-03-17T02:11:48;9.57;;;5.72;;
25870;SDS011;13689;48.590;7.752;2024-03-17T02:14:13;12.13;;;6.22;;
25870;SDS011;13689;48.590;7.752;2024-03-17T02:16:42;11.95;;;6.20;;
25870;SDS011;13689;48.590;7.752;2024-03-17T02:19:08;11.45;;;5.95;;
25870;SDS011;13689;48.590;7.752;2024-03-17T02:21:34;9.25;;;5.75;;
25870;SDS011;13689;48.590;7.752;2024-03-17T02:24:00;10.27;;;6.57;;
25870;SDS011;13689;48.590;7.752;2024-03-17T02:26:26;13.18;;;6.50;;
25870;SDS011;13689;48.590;7.752;2024-03-17T02:28:52;10.55;;;6.82;;
25870;SDS011;13689;48.590;7.752;2024-03-17T02:31:18;11.20;;;6.38;;
25870;SDS011;13689;48.590;7.752;2024-03-17T02:33:45;8.95;;;6.00;;
25870;SDS011;13689;48.590;7.752;2024-03-17T02:36:10;8.38;;;6.00;;
25870;SDS011;13689;48.590;7.752;2024-03-17T02:38:37;12.15;;;6.47;;
25870;SDS011;13689;48.590;7.752;2024-03-17T02:41:25;11.93;;;6.55;;
25870;SDS011;13689;48.590;7.752;2024-03-17T02:43:51;9.88;;;5.50;;
25870;SDS011;13689;48.590;7.752;2024-03-17T02:46:17;8.88;;;5.43;;
25870;SDS011;13689;48.590;7.752;2024-03-17T02:48:45;12.07;;;6.28;;
25870;SDS011;13689;48.590;7.752;2024-03-17T02:51:15;9.50;;;5.80;;
25870;SDS011;13689;48.590;7.752;2024-03-17T02:53:42;12.77;;;5.88;;
25870;SDS011;13689;48.590;7.752;2024-03-17T02:56:09;11.02;;;5.80;;
25870;SDS011;13689;48.590;7.752;2024-03-17T02:58:36;10.05;;;5.53;;
25870;SDS011;13689;48.590;7.752;2024-03-17T03:01:03;13.50;;;6.83;;
25870;SDS011;13689;48.590;7.752;2024-03-17T03:03:30;11.63;;;6.10;;
25870;SDS011;13689;48.590;7.752;2024-03-17T03:05:56;13.43;;;5.97;;
25870;SDS011;13689;48.590;7.752;2024-03-17T03:08:22;11.05;;;5.07;;
25870;SDS011;13689;48.590;7.752;2024-03-17T03:10:48;9.32;;;5.93;;
25870;SDS011;13689;48.590;7.752;2024-03-17T03:13:14;8.55;;;5.78;;
25870;SDS011;13689;48.590;7.752;2024-03-17T03:15:39;11.45;;;5.72;;
25870;SDS011;13689;48.590;7.752;2024-03-17T03:18:05;9.15;;;5.50;;
25870;SDS011;13689;48.590;7.752;2024-03-17T03:20:31;8.05;;;5.60;;
25870;SDS011;13689;48.590;7.752;2024-03-17T03:22:56;8.43;;;5.10;;
25870;SDS011;13689;48.590;7.752;2024-03-17T03:25:22;11.27;;;5.63;;
25870;SDS011;13689;48.590;7.752;2024-03-17T03:27:47;8.63;;;5.15;;
25870;SDS011;13689;48.590;7.752;2024-03-17T03:30:13;9.85;;;5.32;;
25870;SDS011;13689;48.590;7.752;2024-03-17T03:32:40;11.00;;;5.18;;
25870;SDS011;13689;48.590;7.752;2024-03-17T03:35:07;9.55;;;5.18;;
25870;SDS011;13689;48.590;7.752;2024-03-17T03:37:33;8.57;;;5.15;;
25870;SDS011;13689;48.590;7.752;2024-03-17T03:39:59;9.43;;;5.13;;
25870;SDS011;13689;48.590;7.752;2024-03-17T03:42:24;6.82;;;4.80;;
25870;SDS011;13689;48.590;7.752;2024-03-17T03:44:50;7.70;;;5.00;;
25870;SDS011;13689;48.590;7.752;2024-03-17T03:47:15;8.57;;;5.13;;
25870;SDS011;13689;48.590;7.752;2024-03-17T03:49:41;9.25;;;5.28;;
25870;SDS011;13689;48.590;7.752;2024-03-17T03:52:08;11.05;;;5.15;;
25870;SDS011;13689;48.590;7.752;2024-03-17T03:54:35;13.48;;;5.57;;
25870;SDS011;13689;48.590;7.752;2024-03-17T03:57:00;9.10;;;5.38;;
25870;SDS011;13689;48.590;7.752;2024-03-17T03:59:27;6.10;;;3.45;;
25870;SDS011;13689;48.590;7.752;2024-03-17T04:01:54;11.98;;;5.30;;
25870;SDS011;13689;48.590;7.752;2024-03-17T04:04:19;10.77;;;5.10;;
25870;SDS011;13689;48.590;7.752;2024-03-17T04:06:45;10.02;;;5.55;;
25870;SDS011;13689;48.590;7.752;2024-03-17T04:09:11;9.93;;;5.63;;
25870;SDS011;13689;48.590;7.752;2024-03-17T04:11:37;8.52;;;5.05;;
25870;SDS011;13689;48.590;7.752;2024-03-17T04:14:03;8.57;;;4.93;;
25870;SDS011;13689;48.590;7.752;2024-03-17T04:16:29;9.05;;;5.00;;
25870;SDS011;13689;48.590;7.752;2024-03-17T04:18:56;7.20;;;5.07;;
25870;SDS011;13689;48.590;7.752;2024-03-17T04:21:22;8.27;;;5.22;;
25870;SDS011;13689;48.590;7.752;2024-03-17T04:23:47;7.57;;;5.05;;
25870;SDS011;13689;48.590;7.752;2024-03-17T04:26:13;7.20;;;5.18;;
25870;SDS011;13689;48.590;7.752;2024-03-17T04:28:39;12.48;;;5.57;;
25870;SDS011;13689;48.590;7.752;2024-03-17T04:31:05;10.68;;;5.22;;
25870;SDS011;13689;48.590;7.752;2024-03-17T04:33:31;9.05;;;5.13;;
25870;SDS011;13689;48.590;7.752;2024-03-17T04:35:58;11.90;;;5.03;;
25870;SDS011;13689;48.590;7.752;2024-03-17T04:38:23;8.73;;;5.53;;
25870;SDS011;13689;48.590;7.752;2024-03-17T04:40:49;9.98;;;5.50;;
25870;SDS011;13689;48.590;7.752;2024-03-17T04:43:15;8.77;;;5.43;;
25870;SDS011;13689;48.590;7.752;2024-03-17T04:45:41;9.80;;;5.50;;
25870;SDS011;13689;48.590;7.752;2024-03-17T04:48:06;8.30;;;5.25;;
25870;SDS011;13689;48.590;7.752;2024-03-17T04:50:32;11.18;;;5.88;;
25870;SDS011;13689;48.590;7.752;2024-03-17T04:52:58;10.20;;;5.55;;
25870;SDS011;13689;48.590;7.752;2024-03-17T04:55:24;9.90;;;5.07;;
25870;SDS011;13689;48.590;7.752;2024-03-17T04:57:50;10.25;;;5.38;;
25870;SDS011;13689;48.590;7.752;2024-03-17T05:00:16;9.05;;;5.70;;
25870;SDS011;13689;48.590;7.752;2024-03-17T05:02:44;10.07;;;5.60;;
25870;SDS011;13689;48.590;7.752;2024-03-17T05:05:10;7.68;;;5.03;;
25870;SDS011;13689;48.590;7.752;2024-03-17T05:07:36;10.73;;;5.53;;
25870;SDS011;13689;48.590;7.752;2024-03-17T05:10:02;10.70;;;4.80;;
25870;SDS011;13689;48.590;7.752;2024-03-17T05:12:28;8.90;;;5.22;;
25870;SDS011;13689;48.590;7.752;2024-03-17T05:14:54;9.63;;;4.93;;
25870;SDS011;13689;48.590;7.752;2024-03-17T05:17:19;9.07;;;5.15;;
25870;SDS011;13689;48.590;7.752;2024-03-17T05:19:45;10.73;;;4.50;;
25870;SDS011;13689;48.590;7.752;2024-03-17T05:22:11;7.90;;;4.85;;
25870;SDS011;13689;48.590;7.752;2024-03-17T05:24:36;8.43;;;4.97;;
25870;SDS011;13689;48.590;7.752;2024-03-17T05:27:02;7.60;;;5.35;;
25870;SDS011;13689;48.590;7.752;2024-03-17T05:29:28;9.55;;;5.55;;
25870;SDS011;13689;48.590;7.752;2024-03-17T05:31:54;8.88;;;5.50;;
25870;SDS011;13689;48.590;7.752;2024-03-17T05:34:20;10.38;;;5.47;;
25870;SDS011;13689;48.590;7.752;2024-03-17T05:36:46;10.02;;;5.47;;
25870;SDS011;13689;48.590;7.752;2024-03-17T05:39:12;9.80;;;5.25;;
25870;SDS011;13689;48.590;7.752;2024-03-17T05:41:38;7.68;;;5.25;;
25870;SDS011;13689;48.590;7.752;2024-03-17T05:44:04;6.65;;;5.22;;
25870;SDS011;13689;48.590;7.752;2024-03-17T05:46:30;10.85;;;5.22;;
25870;SDS011;13689;48.590;7.752;2024-03-17T05:48:55;10.30;;;5.72;;
25870;SDS011;13689;48.590;7.752;2024-03-17T05:51:21;10.88;;;5.70;;
25870;SDS011;13689;48.590;7.752;2024-03-17T05:53:48;11.32;;;5.47;;
25870;SDS011;13689;48.590;7.752;2024-03-17T05:56:14;9.90;;;5.47;;
25870;SDS011;13689;48.590;7.752;2024-03-17T05:58:41;9.77;;;5.28;;
25870;SDS011;13689;48.590;7.752;2024-03-17T06:01:06;9.00;;;5.40;;
25870;SDS011;13689;48.590;7.752;2024-03-17T06:03:33;9.48;;;5.75;;
25870;SDS011;13689;48.590;7.752;2024-03-17T06:06:01;10.05;;;5.88;;
25870;SDS011;13689;48.590;7.752;2024-03-17T06:08:28;12.30;;;5.95;;
25870;SDS011;13689;48.590;7.752;2024-03-17T06:10:54;9.10;;;5.03;;
25870;SDS011;13689;48.590;7.752;2024-03-17T06:13:22;9.23;;;4.97;;
25870;SDS011;13689;48.590;7.752;2024-03-17T06:15:49;10.45;;;5.68;;
25870;SDS011;13689;48.590;7.752;2024-03-17T06:18:15;7.53;;;5.18;;
25870;SDS011;13689;48.590;7.752;2024-03-17T06:20:46;7.55;;;5.03;;
25870;SDS011;13689;48.590;7.752;2024-03-17T06:23:13;14.02;;;6.00;;
25870;SDS011;13689;48.590;7.752;2024-03-17T06:25:46;9.00;;;5.50;;
25870;SDS011;13689;48.590;7.752;2024-03-17T06:28:14;7.28;;;5.15;;
25870;SDS011;13689;48.590;7.752;2024-03-17T06:33:15;9.93;;;5.88;;
25870;SDS011;13689;48.590;7.752;2024-03-17T06:35:44;11.60;;;5.60;;
25870;SDS011;13689;48.590;7.752;2024-03-17T06:38:11;9.07;;;5.23;;
25870;SDS011;13689;48.590;7.752;2024-03-17T06:40:37;11.30;;;5.45;;
25870;SDS011;13689;48.590;7.752;2024-03-17T06:43:03;8.85;;;5.18;;
25870;SDS011;13689;48.590;7.752;2024-03-17T06:45:29;11.20;;;4.93;;
25870;SDS011;13689;48.590;7.752;2024-03-17T06:47:54;8.13;;;5.07;;
25870;SDS011;13689;48.590;7.752;2024-03-17T06:50:20;9.65;;;5.55;;
25870;SDS011;13689;48.590;7.752;2024-03-17T06:52:46;8.43;;;5.22;;
25870;SDS011;13689;48.590;7.752;2024-03-17T06:55:12;12.75;;;5.10;;
25870;SDS011;13689;48.590;7.752;2024-03-17T06:57:37;8.35;;;5.15;;
25870;SDS011;13689;48.590;7.752;2024-03-17T07:00:08;12.20;;;5.70;;
25870;SDS011;13689;48.590;7.752;2024-03-17T07:02:39;13.45;;;5.60;;
25870;SDS011;13689;48.590;7.752;2024-03-17T07:05:12;11.80;;;5.18;;
25870;SDS011;13689;48.590;7.752;2024-03-17T07:07:41;14.05;;;6.03;;
25870;SDS011;13689;48.590;7.752;2024-03-17T07:10:08;11.35;;;5.72;;
25870;SDS011;13689;48.590;7.752;2024-03-17T07:15:01;8.85;;;5.35;;
25870;SDS011;13689;48.590;7.752;2024-03-17T07:17:27;10.45;;;5.38;;
25870;SDS011;13689;48.590;7.752;2024-03-17T07:19:53;9.65;;;5.70;;
25870;SDS011;13689;48.590;7.752;2024-03-17T07:22:18;7.05;;;5.10;;
25870;SDS011;13689;48.590;7.752;2024-03-17T07:24:44;8.85;;;5.15;;
25870;SDS011;13689;48.590;7.752;2024-03-17T07:27:10;8.95;;;4.90;;
25870;SDS011;13689;48.590;7.752;2024-03-17T07:29:38;9.93;;;5.10;;
25870;SDS011;13689;48.590;7.752;2024-03-17T07:32:04;9.27;;;5.07;;
25870;SDS011;13689;48.590;7.752;2024-03-17T07:34:31;9.98;;;5.38;;
25870;SDS011;13689;48.590;7.752;2024-03-17T07:36:57;11.75;;;6.18;;
25870;SDS011;13689;48.590;7.752;2024-03-17T07:39:27;9.18;;;5.45;;
25870;SDS011;13689;48.590;7.752;2024-03-17T07:42:00;9.98;;;5.85;;
25870;SDS011;13689;48.590;7.752;2024-03-17T07:44:26;9.65;;;5.80;;
25870;SDS011;13689;48.590;7.752;2024-03-17T07:47:02;8.60;;;5.75;;
25870;SDS011;13689;48.590;7.752;2024-03-17T07:49:32;9.73;;;5.57;;
25870;SDS011;13689;48.590;7.752;2024-03-17T07:51:58;10.65;;;6.30;;
25870;SDS011;13689;48.590;7.752;2024-03-17T07:54:26;7.50;;;5.47;;
25870;SDS011;13689;48.590;7.752;2024-03-17T07:56:52;10.18;;;5.63;;
25870;SDS011;13689;48.590;7.752;2024-03-17T07:59:18;9.07;;;6.22;;
25870;SDS011;13689;48.590;7.752;2024-03-17T08:01:50;12.82;;;6.43;;
25870;SDS011;13689;48.590;7.752;2024-03-17T08:04:16;12.00;;;6.53;;
25870;SDS011;13689;48.590;7.752;2024-03-17T08:06:41;8.65;;;5.50;;
25870;SDS011;13689;48.590;7.752;2024-03-17T08:09:07;9.05;;;5.50;;
25870;SDS011;13689;48.590;7.752;2024-03-17T08:11:34;8.48;;;6.05;;
25870;SDS011;13689;48.590;7.752;2024-03-17T08:14:03;11.60;;;5.97;;
25870;SDS011;13689;48.590;7.752;2024-03-17T08:16:30;13.30;;;6.00;;
25870;SDS011;13689;48.590;7.752;2024-03-17T08:18:56;8.70;;;5.70;;
25870;SDS011;13689;48.590;7.752;2024-03-17T08:21:22;10.63;;;5.68;;
25870;SDS011;13689;48.590;7.752;2024-03-17T08:23:48;13.23;;;5.88;;
25870;SDS011;13689;48.590;7.752;2024-03-17T08:26:13;8.80;;;5.30;;
25870;SDS011;13689;48.590;7.752;2024-03-17T08:28:39;11.20;;;4.97;;
25870;SDS011;13689;48.590;7.752;2024-03-17T08:31:05;10.23;;;5.40;;
25870;SDS011;13689;48.590;7.752;2024-03-17T08:33:30;8.50;;;5.05;;
25870;SDS011;13689;48.590;7.752;2024-03-17T08:35:59;9.32;;;5.28;;
25870;SDS011;13689;48.590;7.752;2024-03-17T08:38:30;11.98;;;5.00;;
25870;SDS011;13689;48.590;7.752;2024-03-17T08:40:57;11.80;;;6.38;;
25870;SDS011;13689;48.590;7.752;2024-03-17T08:43:26;7.50;;;5.43;;
25870;SDS011;13689;48.590;7.752;2024-03-17T08:46:02;12.63;;;5.72;;
25870;SDS011;13689;48.590;7.752;2024-03-17T08:48:35;8.18;;;5.47;;
25870;SDS011;13689;48.590;7.752;2024-03-17T08:51:02;8.98;;;5.28;;
25870;SDS011;13689;48.590;7.752;2024-03-17T08:53:29;10.48;;;5.68;;
25870;SDS011;13689;48.590;7.752;2024-03-17T08:55:55;7.82;;;5.38;;
25870;SDS011;13689;48.590;7.752;2024-03-17T08:58:21;10.05;;;5.63;;
25870;SDS011;13689;48.590;7.752;2024-03-17T09:00:47;7.88;;;5.97;;
25870;SDS011;13689;48.590;7.752;2024-03-17T09:03:13;9.15;;;5.50;;
25870;SDS011;13689;48.590;7.752;2024-03-17T09:05:40;8.52;;;6.03;;
25870;SDS011;13689;48.590;7.752;2024-03-17T09:08:07;10.57;;;5.75;;
25870;SDS011;13689;48.590;7.752;2024-03-17T09:10:39;8.75;;;5.90;;
25870;SDS011;13689;48.590;7.752;2024-03-17T09:13:06;10.52;;;6.35;;
25870;SDS011;13689;48.590;7.752;2024-03-17T09:15:32;8.50;;;5.70;;
25870;SDS011;13689;48.590;7.752;2024-03-17T09:17:57;9.27;;;5.80;;
25870;SDS011;13689;48.590;7.752;2024-03-17T09:20:23;11.38;;;5.68;;
25870;SDS011;13689;48.590;7.752;2024-03-17T09:22:49;11.90;;;6.07;;
25870;SDS011;13689;48.590;7.752;2024-03-17T09:25:15;9.80;;;5.85;;
25870;SDS011;13689;48.590;7.752;2024-03-17T09:27:41;9.95;;;6.22;;
25870;SDS011;13689;48.590;7.752;2024-03-17T09:30:06;7.90;;;5.53;;
25870;SDS011;13689;48.590;7.752;2024-03-17T09:32:37;12.38;;;6.13;;
25870;SDS011;13689;48.590;7.752;2024-03-17T09:35:03;9.75;;;6.38;;
25870;SDS011;13689;48.590;7.752;2024-03-17T09:37:30;8.77;;;6.00;;
25870;SDS011;13689;48.590;7.752;2024-03-17T09:39:59;10.77;;;5.88;;
25870;SDS011;13689;48.590;7.752;2024-03-17T09:42:25;13.82;;;6.00;;
25870;SDS011;13689;48.590;7.752;2024-03-17T09:44:52;12.50;;;6.85;;
25870;SDS011;13689;48.590;7.752;2024-03-17T09:47:22;9.90;;;6.13;;
25870;SDS011;13689;48.590;7.752;2024-03-17T09:49:51;12.13;;;6.13;;
25870;SDS011;13689;48.590;7.752;2024-03-17T09:52:24;9.65;;;6.22;;
25870;SDS011;13689;48.590;7.752;2024-03-17T09:55:15;11.70;;;6.82;;
25870;SDS011;13689;48.590;7.752;2024-03-17T09:57:40;16.13;;;8.95;;
25870;SDS011;13689;48.590;7.752;2024-03-17T10:00:09;10.52;;;7.05;;
25870;SDS011;13689;48.590;7.752;2024-03-17T10:02:41;9.65;;;6.55;;
25870;SDS011;13689;48.590;7.752;2024-03-17T10:05:24;12.32;;;6.93;;
25870;SDS011;13689;48.590;7.752;2024-03-17T10:07:50;10.90;;;6.32;;
25870;SDS011;13689;48.590;7.752;2024-03-17T10:10:17;13.05;;;7.22;;
25870;SDS011;13689;48.590;7.752;2024-03-17T10:12:51;14.65;;;8.23;;
25870;SDS011;13689;48.590;7.752;2024-03-17T10:15:17;8.90;;;6.20;;
25870;SDS011;13689;48.590;7.752;2024-03-17T10:17:44;12.75;;;6.80;;
25870;SDS011;13689;48.590;7.752;2024-03-17T10:20:13;13.70;;;7.43;;
25870;SDS011;13689;48.590;7.752;2024-03-17T10:25:33;10.18;;;6.97;;
25870;SDS011;13689;48.590;7.752;2024-03-17T10:28:00;10.55;;;7.45;;
25870;SDS011;13689;48.590;7.752;2024-03-17T10:30:27;9.75;;;6.97;;
25870;SDS011;13689;48.590;7.752;2024-03-17T10:35:25;9.98;;;6.10;;
25870;SDS011;13689;48.590;7.752;2024-03-17T10:37:59;12.85;;;5.85;;
25870;SDS011;13689;48.590;7.752;2024-03-17T10:40:26;10.63;;;5.78;;
25870;SDS011;13689;48.590;7.752;2024-03-17T10:42:54;8.77;;;5.65;;
25870;SDS011;13689;48.590;7.752;2024-03-17T10:45:21;11.82;;;6.80;;
25870;SDS011;13689;48.590;7.752;2024-03-17T10:47:50;9.23;;;5.60;;
25870;SDS011;13689;48.590;7.752;2024-03-17T10:50:17;7.10;;;5.00;;
25870;SDS011;13689;48.590;7.752;2024-03-17T10:52:49;10.63;;;5.25;;
25870;SDS011;13689;48.590;7.752;2024-03-17T10:55:22;9.45;;;5.45;;
25870;SDS011;13689;48.590;7.752;2024-03-17T10:57:50;14.30;;;5.95;;
25870;SDS011;13689;48.590;7.752;2024-03-17T11:00:23;7.82;;;5.22;;
25870;SDS011;13689;48.590;7.752;2024-03-17T11:02:50;9.88;;;5.55;;
25870;SDS011;13689;48.590;7.752;2024-03-17T11:05:27;10.30;;;5.70;;
25870;SDS011;13689;48.590;7.752;2024-03-17T11:07:55;8.52;;;5.03;;
25870;SDS011;13689;48.590;7.752;2024-03-17T11:10:29;14.73;;;6.18;;
25870;SDS011;13689;48.590;7.752;2024-03-17T11:13:02;12.95;;;6.05;;
25870;SDS011;13689;48.590;7.752;2024-03-17T11:20:38;9.88;;;5.20;;
25870;SDS011;13689;48.590;7.752;2024-03-17T11:23:08;12.07;;;6.15;;
25870;SDS011;13689;48.590;7.752;2024-03-17T11:25:40;11.02;;;5.35;;
25870;SDS011;13689;48.590;7.752;2024-03-17T11:28:09;10.05;;;5.55;;
25870;SDS011;13689;48.590;7.752;2024-03-17T11:36:47;9.63;;;5.65;;
25870;SDS011;13689;48.590;7.752;2024-03-17T11:38:57;8.43;;;5.47;;
25870;SDS011;13689;48.590;7.752;2024-03-17T11:41:45;8.35;;;4.80;;
25870;SDS011;13689;48.590;7.752;2024-03-17T11:51:54;8.82;;;5.20;;
25870;SDS011;13689;48.590;7.752;2024-03-17T11:54:22;13.63;;;5.90;;
25870;SDS011;13689;48.590;7.752;2024-03-17T11:57:08;6.63;;;4.93;;
25870;SDS011;13689;48.590;7.752;2024-03-17T11:59:37;10.57;;;5.88;;
25870;SDS011;13689;48.590;7.752;2024-03-17T12:02:25;12.38;;;4.80;;
25870;SDS011;13689;48.590;7.752;2024-03-17T12:04:57;11.60;;;5.72;;
25870;SDS011;13689;48.590;7.752;2024-03-17T12:07:24;10.48;;;5.38;;
25870;SDS011;13689;48.590;7.752;2024-03-17T12:09:51;13.00;;;6.20;;
25870;SDS011;13689;48.590;7.752;2024-03-17T12:12:22;9.27;;;5.28;;
25870;SDS011;13689;48.590;7.752;2024-03-17T12:15:01;9.15;;;4.93;;
25870;SDS011;13689;48.590;7.752;2024-03-17T12:17:27;8.80;;;4.00;;
25870;SDS011;13689;48.590;7.752;2024-03-17T12:19:53;7.88;;;4.30;;
25870;SDS011;13689;48.590;7.752;2024-03-17T12:22:21;6.30;;;4.05;;
25870;SDS011;13689;48.590;7.752;2024-03-17T12:24:54;6.88;;;4.07;;
25870;SDS011;13689;48.590;7.752;2024-03-17T12:27:21;7.50;;;4.32;;
25870;SDS011;13689;48.590;7.752;2024-03-17T12:29:49;9.98;;;4.78;;
25870;SDS011;13689;48.590;7.752;2024-03-17T12:32:18;6.20;;;4.22;;
25870;SDS011;13689;48.590;7.752;2024-03-17T12:34:47;7.70;;;3.92;;
25870;SDS011;13689;48.590;7.752;2024-03-17T12:39:51;7.53;;;4.53;;
25870;SDS011;13689;48.590;7.752;2024-03-17T12:42:22;5.18;;;4.07;;
25870;SDS011;13689;48.590;7.752;2024-03-17T12:44:50;6.70;;;3.80;;
25870;SDS011;13689;48.590;7.752;2024-03-17T12:49:50;5.93;;;3.40;;
25870;SDS011;13689;48.590;7.752;2024-03-17T12:54:59;5.22;;;3.55;;
25870;SDS011;13689;48.590;7.752;2024-03-17T12:57:47;6.53;;;3.50;;
25870;SDS011;13689;48.590;7.752;2024-03-17T13:00:33;4.78;;;3.15;;
25870;SDS011;13689;48.590;7.752;2024-03-17T13:03:03;6.30;;;3.80;;
25870;SDS011;13689;48.590;7.752;2024-03-17T13:05:33;7.57;;;4.20;;
25870;SDS011;13689;48.590;7.752;2024-03-17T13:08:00;7.65;;;4.60;;
25870;SDS011;13689;48.590;7.752;2024-03-17T13:10:26;9.80;;;5.07;;
25870;SDS011;13689;48.590;7.752;2024-03-17T13:15:28;8.70;;;3.92;;
25870;SDS011;13689;48.590;7.752;2024-03-17T13:17:58;7.80;;;3.80;;
25870;SDS011;13689;48.590;7.752;2024-03-17T13:20:24;5.50;;;3.25;;
25870;SDS011;13689;48.590;7.752;2024-03-17T13:22:51;6.13;;;3.70;;
25870;SDS011;13689;48.590;7.752;2024-03-17T13:25:18;8.52;;;3.97;;
25870;SDS011;13689;48.590;7.752;2024-03-17T13:27:51;6.72;;;4.13;;
25870;SDS011;13689;48.590;7.752;2024-03-17T13:30:19;5.13;;;3.87;;
25870;SDS011;13689;48.590;7.752;2024-03-17T13:32:52;8.77;;;3.38;;
25870;SDS011;13689;48.590;7.752;2024-03-17T13:35:23;6.80;;;3.30;;
25870;SDS011;13689;48.590;7.752;2024-03-17T13:37:51;8.23;;;3.00;;
25870;SDS011;13689;48.590;7.752;2024-03-17T13:40:18;7.82;;;3.33;;
25870;SDS011;13689;48.590;7.752;2024-03-17T13:42:50;7.82;;;3.20;;
25870;SDS011;13689;48.590;7.752;2024-03-17T13:45:17;6.13;;;3.22;;
25870;SDS011;13689;48.590;7.752;2024-03-17T13:48:01;4.75;;;2.63;;
25870;SDS011;13689;48.590;7.752;2024-03-17T13:50:29;7.18;;;2.78;;
25870;SDS011;13689;48.590;7.752;2024-03-17T13:52:55;4.60;;;2.90;;
25870;SDS011;13689;48.590;7.752;2024-03-17T13:55:23;5.13;;;2.70;;
25870;SDS011;13689;48.590;7.752;2024-03-17T13:57:51;4.18;;;2.97;;
25870;SDS011;13689;48.590;7.752;2024-03-17T14:00:19;4.43;;;2.83;;
25870;SDS011;13689;48.590;7.752;2024-03-17T14:02:46;5.60;;;3.25;;
25870;SDS011;13689;48.590;7.752;2024-03-17T14:05:13;5.47;;;3.23;;
25870;SDS011;13689;48.590;7.752;2024-03-17T14:07:40;4.32;;;2.90;;
25870;SDS011;13689;48.590;7.752;2024-03-17T14:10:07;3.83;;;2.40;;
25870;SDS011;13689;48.590;7.752;2024-03-17T14:12:34;3.67;;;1.90;;
25870;SDS011;13689;48.590;7.752;2024-03-17T14:15:00;2.53;;;1.85;;
25870;SDS011;13689;48.590;7.752;2024-03-17T14:17:31;3.50;;;2.05;;
25870;SDS011;13689;48.590;7.752;2024-03-17T14:19:57;8.73;;;2.35;;
25870;SDS011;13689;48.590;7.752;2024-03-17T14:22:23;4.22;;;2.38;;
25870;SDS011;13689;48.590;7.752;2024-03-17T14:24:49;4.93;;;2.00;;
25870;SDS011;13689;48.590;7.752;2024-03-17T14:27:15;7.18;;;1.73;;
25870;SDS011;13689;48.590;7.752;2024-03-17T14:29:42;4.50;;;2.35;;
25870;SDS011;13689;48.590;7.752;2024-03-17T14:32:08;5.30;;;2.42;;
25870;SDS011;13689;48.590;7.752;2024-03-17T14:34:34;6.22;;;2.47;;
25870;SDS011;13689;48.590;7.752;2024-03-17T14:37:04;4.68;;;2.28;;
25870;SDS011;13689;48.590;7.752;2024-03-17T14:39:30;4.75;;;2.92;;
25870;SDS011;13689;48.590;7.752;2024-03-17T14:41:56;4.15;;;2.67;;
25870;SDS011;13689;48.590;7.752;2024-03-17T14:44:22;4.20;;;2.45;;
25870;SDS011;13689;48.590;7.752;2024-03-17T14:46:48;4.82;;;2.47;;
25870;SDS011;13689;48.590;7.752;2024-03-17T14:49:17;32.90;;;14.32;;
25870;SDS011;13689;48.590;7.752;2024-03-17T14:51:43;5.40;;;3.25;;
25870;SDS011;13689;48.590;7.752;2024-03-17T14:54:09;6.95;;;2.72;;
25870;SDS011;13689;48.590;7.752;2024-03-17T14:56:37;6.97;;;2.53;;
25870;SDS011;13689;48.590;7.752;2024-03-17T14:59:05;9.60;;;3.05;;
25870;SDS011;13689;48.590;7.752;2024-03-17T15:01:30;4.63;;;2.75;;
25870;SDS011;13689;48.590;7.752;2024-03-17T15:03:56;9.43;;;3.75;;
25870;SDS011;13689;48.590;7.752;2024-03-17T15:06:22;8.25;;;2.72;;
25870;SDS011;13689;48.590;7.752;2024-03-17T15:08:47;5.57;;;2.65;;
25870;SDS011;13689;48.590;7.752;2024-03-17T15:11:13;3.42;;;2.30;;
25870;SDS011;13689;48.590;7.752;2024-03-17T15:13:39;9.45;;;2.75;;
25870;SDS011;13689;48.590;7.752;2024-03-17T15:16:07;6.70;;;2.80;;
25870;SDS011;13689;48.590;7.752;2024-03-17T15:18:33;6.60;;;2.70;;
25870;SDS011;13689;48.590;7.752;2024-03-17T15:21:01;9.55;;;3.17;;
25870;SDS011;13689;48.590;7.752;2024-03-17T15:23:29;6.30;;;2.85;;